createdAt,value
2023-06-30T00:00:12.485Z,98425.41
2023-06-30T00:03:00.245Z,98425.20
2023-06-30T00:05:28.588Z,98426.90
2023-06-30T00:07:59.167Z,98430.15
2023-06-30T00:10:26.361Z,98427.73
2023-06-30T00:12:53.229Z,98424.96
2023-06-30T00:15:20.142Z,98423.38
2023-06-30T00:17:49.116Z,98424.36
2023-06-30T00:20:16.278Z,98424.36
2023-06-30T00:22:44.637Z,98421.98
2023-06-30T00:25:12.890Z,98420.13
2023-06-30T00:27:42.013Z,98417.34
2023-06-30T00:30:09.159Z,98412.90
2023-06-30T00:32:35.890Z,98412.61
2023-06-30T00:35:04.028Z,98409.97
2023-06-30T00:37:31.612Z,98410.05
2023-06-30T00:39:58.489Z,98410.64
2023-06-30T00:42:25.651Z,98409.27
2023-06-30T00:44:54.772Z,98413.56
2023-06-30T00:47:21.817Z,98414.46
2023-06-30T00:49:48.807Z,98415.02
2023-06-30T00:52:15.631Z,98416.74
2023-06-30T00:54:42.759Z,98412.58
2023-06-30T00:57:10.072Z,98414.45
2023-06-30T00:59:36.736Z,98412.41
2023-06-30T01:02:07.641Z,98411.56
2023-06-30T01:05:00.829Z,98410.38
2023-06-30T01:07:34.188Z,98409.38
2023-06-30T01:10:04.288Z,98407.10
2023-06-30T01:12:32.261Z,98401.79
2023-06-30T01:15:00.258Z,98400.47
2023-06-30T01:17:27.696Z,98398.57
2023-06-30T01:19:55.095Z,98391.39
2023-06-30T01:22:25.400Z,98392.36
2023-06-30T01:24:55.946Z,98391.77
2023-06-30T01:27:22.750Z,98391.14
2023-06-30T01:29:51.335Z,98388.33
2023-06-30T01:32:18.813Z,98387.25
2023-06-30T01:34:45.718Z,98386.86
2023-06-30T01:37:13.521Z,98380.65
2023-06-30T01:39:40.861Z,98383.52
2023-06-30T01:42:08.492Z,98382.34
2023-06-30T01:44:36.327Z,98376.40
2023-06-30T01:47:03.755Z,98378.62
2023-06-30T01:49:30.631Z,98379.92
2023-06-30T01:51:57.684Z,98381.43
2023-06-30T01:54:24.525Z,98378.48
2023-06-30T01:56:53.122Z,98376.38
2023-06-30T01:59:20.073Z,98376.41
2023-06-30T02:01:47.663Z,98378.23
2023-06-30T02:04:16.186Z,98377.08
2023-06-30T02:06:47.007Z,98373.37
2023-06-30T02:09:14.144Z,98376.48
2023-06-30T02:11:41.174Z,98377.66
2023-06-30T02:14:08.074Z,98381.59
2023-06-30T02:16:35.094Z,98383.71
2023-06-30T02:19:02.235Z,98383.43
2023-06-30T02:21:29.135Z,98379.58
2023-06-30T02:23:56.158Z,98382.30
2023-06-30T02:26:22.930Z,98389.02
2023-06-30T02:28:50.051Z,98384.39
2023-06-30T02:31:17.520Z,98381.85
2023-06-30T02:33:44.302Z,98378.91
2023-06-30T02:36:11.244Z,98378.45
2023-06-30T02:38:38.355Z,98373.23
2023-06-30T02:41:05.067Z,98371.38
2023-06-30T02:43:31.765Z,98374.18
2023-06-30T02:45:59.677Z,98376.02
2023-06-30T02:48:27.894Z,98376.40
2023-06-30T02:50:54.939Z,98375.77
2023-06-30T02:53:22.102Z,98374.83
2023-06-30T02:55:49.318Z,98377.67
2023-06-30T02:58:16.205Z,98382.30
2023-06-30T03:00:43.234Z,98380.95
2023-06-30T03:03:11.021Z,98382.98
2023-06-30T03:05:38.682Z,98378.87
2023-06-30T03:08:06.683Z,98376.94
2023-06-30T03:10:34.076Z,98375.29
2023-06-30T03:13:00.931Z,98365.03
2023-06-30T03:15:27.817Z,98367.05
2023-06-30T03:17:56.183Z,98367.81
2023-06-30T03:20:24.040Z,98366.95
2023-06-30T03:22:52.594Z,98370.88
2023-06-30T03:25:19.925Z,98371.58
2023-06-30T03:27:47.125Z,98374.73
2023-06-30T03:30:14.457Z,98371.76
2023-06-30T03:32:44.429Z,98377.92
2023-06-30T03:35:11.518Z,98375.89
2023-06-30T03:37:38.369Z,98377.02
2023-06-30T03:40:06.320Z,98371.08
2023-06-30T03:42:33.656Z,98366.46
2023-06-30T03:45:01.112Z,98364.23
2023-06-30T03:47:28.279Z,98362.06
2023-06-30T03:49:55.477Z,98365.80
2023-06-30T03:52:22.430Z,98362.48
2023-06-30T03:54:49.554Z,98360.62
2023-06-30T03:57:16.426Z,98356.23
2023-06-30T03:59:43.380Z,98354.54
2023-06-30T04:02:10.042Z,98351.55
2023-06-30T04:04:37.174Z,98360.73
2023-06-30T04:07:04.549Z,98360.05
2023-06-30T04:09:31.603Z,98354.63
2023-06-30T04:11:58.547Z,98354.74
2023-06-30T04:14:25.530Z,98359.84
2023-06-30T04:16:52.548Z,98359.94
2023-06-30T04:19:19.607Z,98361.23
2023-06-30T04:21:47.533Z,98365.01
2023-06-30T04:24:14.287Z,98360.63
2023-06-30T04:26:41.174Z,98358.94
2023-06-30T04:29:08.228Z,98354.79
2023-06-30T04:31:36.302Z,98352.33
2023-06-30T04:34:03.464Z,98352.90
2023-06-30T04:36:30.626Z,98360.31
2023-06-30T04:38:58.623Z,98361.48
2023-06-30T04:41:26.164Z,98358.20
2023-06-30T04:43:53.158Z,98359.17
2023-06-30T04:46:20.227Z,98361.23
2023-06-30T04:48:47.329Z,98366.33
2023-06-30T04:51:15.986Z,98368.33
2023-06-30T04:53:42.961Z,98365.15
2023-06-30T04:56:10.422Z,98371.19
2023-06-30T04:58:37.383Z,98371.06
2023-06-30T05:01:05.572Z,98369.59
2023-06-30T05:03:32.761Z,98368.23
2023-06-30T05:05:59.962Z,98366.27
2023-06-30T05:08:27.425Z,98364.70
2023-06-30T05:10:54.489Z,98369.14
2023-06-30T05:13:21.299Z,98368.05
2023-06-30T05:15:48.677Z,98362.45
2023-06-30T05:18:16.196Z,98361.02
2023-06-30T05:20:43.308Z,98362.08
2023-06-30T05:23:10.050Z,98358.27
2023-06-30T05:25:38.132Z,98356.84
2023-06-30T05:28:05.548Z,98361.92
2023-06-30T05:31:05.444Z,98364.56
2023-06-30T05:33:32.385Z,98364.83
2023-06-30T05:35:59.301Z,98365.39
2023-06-30T05:38:26.355Z,98366.16
2023-06-30T05:40:53.789Z,98362.77
2023-06-30T05:43:20.755Z,98370.88
2023-06-30T05:45:50.162Z,98373.95
2023-06-30T05:48:17.215Z,98371.00
2023-06-30T05:50:46.051Z,98366.69
2023-06-30T05:53:12.963Z,98370.52
2023-06-30T05:55:40.028Z,98361.19
2023-06-30T05:58:07.276Z,98363.84
2023-06-30T06:00:34.356Z,98372.55
2023-06-30T06:03:01.912Z,98369.07
2023-06-30T06:05:29.466Z,98369.09
2023-06-30T06:07:56.443Z,98367.00
2023-06-30T06:10:23.301Z,98370.55
2023-06-30T06:12:52.591Z,98369.44
2023-06-30T06:15:19.592Z,98374.69
2023-06-30T06:17:46.497Z,98372.02
2023-06-30T06:20:13.383Z,98377.07
2023-06-30T06:22:40.269Z,98373.62
2023-06-30T06:25:08.033Z,98372.83
2023-06-30T06:27:36.092Z,98374.82
2023-06-30T06:30:05.907Z,98370.13
2023-06-30T06:32:33.145Z,98370.58
2023-06-30T06:35:00.350Z,98374.43
2023-06-30T06:37:27.399Z,98373.77
2023-06-30T06:39:54.309Z,98372.92
2023-06-30T06:42:21.200Z,98373.16
2023-06-30T06:44:48.972Z,98376.74
2023-06-30T06:47:34.608Z,98371.95
2023-06-30T06:50:03.435Z,98368.07
2023-06-30T06:52:30.696Z,98363.88
2023-06-30T06:54:57.750Z,98366.02
2023-06-30T06:57:24.600Z,98368.45
2023-06-30T06:59:51.721Z,98367.62
2023-06-30T07:02:18.575Z,98370.55
2023-06-30T07:04:45.585Z,98367.77
2023-06-30T07:07:12.593Z,98368.74
2023-06-30T07:09:39.459Z,98368.68
2023-06-30T07:12:07.324Z,98368.02
2023-06-30T07:14:34.787Z,98364.77
2023-06-30T07:17:01.637Z,98364.45
2023-06-30T07:19:28.695Z,98364.93
2023-06-30T07:21:55.745Z,98364.19
2023-06-30T07:24:23.486Z,98369.96
2023-06-30T07:26:50.403Z,98366.04
2023-06-30T07:29:17.353Z,98362.83
2023-06-30T07:31:44.220Z,98357.81
2023-06-30T07:34:11.442Z,98362.44
2023-06-30T07:36:38.343Z,98359.77
2023-06-30T07:39:05.737Z,98360.48
2023-06-30T07:41:35.850Z,98359.87
2023-06-30T07:44:03.936Z,98359.55
2023-06-30T07:46:31.332Z,98360.77
2023-06-30T07:48:58.434Z,98358.67
2023-06-30T07:51:25.658Z,98364.67
2023-06-30T07:53:52.652Z,98369.00
2023-06-30T07:56:19.715Z,98361.36
2023-06-30T07:58:46.617Z,98354.15
2023-06-30T08:01:13.533Z,98352.91
2023-06-30T08:03:40.908Z,98357.19
2023-06-30T08:06:08.195Z,98352.91
2023-06-30T08:08:35.249Z,98351.60
2023-06-30T08:11:02.254Z,98350.37
2023-06-30T08:13:29.185Z,98350.77
2023-06-30T08:15:56.508Z,98346.91
2023-06-30T08:18:27.915Z,98350.10
2023-06-30T08:20:59.986Z,98347.52
2023-06-30T08:23:27.178Z,98344.34
2023-06-30T08:25:55.795Z,98340.52
2023-06-30T08:28:22.665Z,98342.73
2023-06-30T08:30:49.562Z,98346.14
2023-06-30T08:33:30.585Z,98344.71
2023-06-30T08:36:05.092Z,98344.72
2023-06-30T08:38:32.284Z,98342.55
2023-06-30T08:41:00.666Z,98340.45
2023-06-30T08:43:29.066Z,98342.27
2023-06-30T08:45:56.490Z,98341.71
2023-06-30T08:48:24.263Z,98339.27
2023-06-30T08:50:53.078Z,98339.05
2023-06-30T08:53:20.937Z,98334.91
2023-06-30T08:55:47.884Z,98334.82
2023-06-30T08:58:25.448Z,98335.30
2023-06-30T09:00:54.198Z,98332.70
2023-06-30T09:03:21.646Z,98329.29
2023-06-30T09:05:50.631Z,98328.56
2023-06-30T09:08:22.093Z,98325.35
2023-06-30T09:10:49.231Z,98321.46
2023-06-30T09:13:18.143Z,98318.08
2023-06-30T09:15:46.407Z,98314.08
2023-06-30T09:18:13.638Z,98309.80
2023-06-30T09:20:41.117Z,98309.80
2023-06-30T09:23:08.190Z,98304.84
2023-06-30T09:25:36.390Z,98303.25
2023-06-30T09:28:08.229Z,98299.92
2023-06-30T09:30:35.707Z,98301.05
2023-06-30T09:33:02.791Z,98296.51
2023-06-30T09:35:46.681Z,98295.06
2023-06-30T09:38:17.949Z,98291.44
2023-06-30T09:40:50.916Z,98289.90
2023-06-30T09:43:20.751Z,98292.19
2023-06-30T09:45:53.682Z,98293.17
2023-06-30T09:48:20.728Z,98290.77
2023-06-30T09:50:47.576Z,98293.05
2023-06-30T09:53:20.530Z,98285.25
2023-06-30T09:55:51.174Z,98290.16
2023-06-30T09:58:19.575Z,98289.98
2023-06-30T10:00:46.916Z,98283.23
2023-06-30T10:03:20.398Z,98283.99
2023-06-30T10:05:50.816Z,98282.00
2023-06-30T10:08:17.879Z,98278.94
2023-06-30T10:10:44.937Z,98278.44
2023-06-30T10:13:13.622Z,98278.58
2023-06-30T10:15:41.056Z,98275.32
2023-06-30T10:18:13.050Z,98273.77
2023-06-30T10:20:47.822Z,98269.82
2023-06-30T10:23:18.695Z,98274.57
2023-06-30T10:25:45.637Z,98271.84
2023-06-30T10:28:13.850Z,98269.58
2023-06-30T10:30:40.723Z,98262.77
2023-06-30T10:33:07.635Z,98264.38
2023-06-30T10:35:35.533Z,98257.33
2023-06-30T10:38:02.690Z,98252.41
2023-06-30T10:40:30.622Z,98251.04
2023-06-30T10:42:58.126Z,98244.14
2023-06-30T10:45:33.576Z,98248.67
2023-06-30T10:48:10.103Z,98242.06
2023-06-30T10:50:56.509Z,98240.45
2023-06-30T10:53:23.543Z,98234.81
2023-06-30T10:55:55.082Z,98234.07
2023-06-30T10:58:25.369Z,98228.77
2023-06-30T11:01:05.041Z,98225.70
2023-06-30T11:03:58.855Z,98226.67
2023-06-30T11:06:26.597Z,98224.89
2023-06-30T11:09:12.995Z,98224.19
2023-06-30T11:11:49.269Z,98218.08
2023-06-30T11:14:30.163Z,98211.59
2023-06-30T11:17:04.296Z,98208.83
2023-06-30T11:19:31.481Z,98209.42
2023-06-30T11:22:17.366Z,98211.13
2023-06-30T11:24:44.480Z,98207.29
2023-06-30T11:27:11.595Z,98208.45
2023-06-30T11:29:40.461Z,98205.50
2023-06-30T11:32:08.113Z,98204.49
2023-06-30T11:34:36.003Z,98200.45
2023-06-30T11:37:06.212Z,98194.45
2023-06-30T11:39:34.907Z,98194.88
2023-06-30T11:42:02.048Z,98196.27
2023-06-30T11:44:29.272Z,98190.51
2023-06-30T11:46:58.743Z,98187.61
2023-06-30T11:49:27.185Z,98188.99
2023-06-30T11:51:53.948Z,98183.90
2023-06-30T11:54:29.068Z,98176.44
2023-06-30T11:56:57.563Z,98173.87
2023-06-30T11:59:27.493Z,98170.64
2023-06-30T12:01:54.525Z,98171.97
2023-06-30T12:04:21.639Z,98172.48
2023-06-30T12:06:49.372Z,98169.20
2023-06-30T12:09:16.431Z,98167.88
2023-06-30T12:11:44.736Z,98168.39
2023-06-30T12:14:15.234Z,98167.40
2023-06-30T12:16:43.114Z,98166.41
2023-06-30T12:19:10.969Z,98166.36
2023-06-30T12:21:51.318Z,98162.07
2023-06-30T12:24:19.413Z,98162.14
2023-06-30T12:26:46.586Z,98155.66
2023-06-30T12:29:13.306Z,98150.48
2023-06-30T12:31:42.059Z,98146.46
2023-06-30T12:34:09.179Z,98146.83
2023-06-30T12:36:36.169Z,98143.30
2023-06-30T12:39:03.160Z,98144.17
2023-06-30T12:41:30.821Z,98141.84
2023-06-30T12:43:59.062Z,98143.12
2023-06-30T12:46:26.606Z,98140.43
2023-06-30T12:48:53.616Z,98142.79
2023-06-30T12:51:20.492Z,98140.23
2023-06-30T12:53:47.589Z,98133.91
2023-06-30T12:56:14.764Z,98131.52
2023-06-30T12:58:41.673Z,98127.48
2023-06-30T13:01:08.586Z,98123.54
2023-06-30T13:03:35.826Z,98125.31
2023-06-30T13:06:03.518Z,98121.97
2023-06-30T13:08:30.410Z,98118.60
2023-06-30T13:10:57.335Z,98109.65
2023-06-30T13:13:24.278Z,98111.63
2023-06-30T13:15:51.953Z,98107.80
2023-06-30T13:18:18.772Z,98112.23
2023-06-30T13:20:45.736Z,98108.95
2023-06-30T13:23:17.555Z,98107.96
2023-06-30T13:25:55.030Z,98104.31
2023-06-30T13:28:22.219Z,98104.19
2023-06-30T13:30:49.081Z,98096.14
2023-06-30T13:33:15.879Z,98098.99
2023-06-30T13:35:42.888Z,98094.44
2023-06-30T13:38:11.533Z,98096.02
2023-06-30T13:40:38.468Z,98092.98
2023-06-30T13:43:06.665Z,98086.66
2023-06-30T13:45:33.753Z,98086.95
2023-06-30T13:48:00.738Z,98084.28
2023-06-30T13:50:28.605Z,98084.15
2023-06-30T13:52:55.418Z,98077.11
2023-06-30T13:55:22.226Z,98074.80
2023-06-30T13:57:48.999Z,98067.13
2023-06-30T14:00:16.140Z,98062.89
2023-06-30T14:02:42.983Z,98069.40
2023-06-30T14:05:10.067Z,98064.20
2023-06-30T14:07:36.928Z,98065.14
2023-06-30T14:10:04.968Z,98060.48
2023-06-30T14:12:31.781Z,98057.98
2023-06-30T14:14:58.642Z,98055.66
2023-06-30T14:17:25.552Z,98051.94
2023-06-30T14:19:52.304Z,98050.54
2023-06-30T14:22:19.230Z,98047.99
2023-06-30T14:24:46.368Z,98045.91
2023-06-30T14:27:13.139Z,98042.13
2023-06-30T14:29:42.949Z,98038.33
2023-06-30T14:32:10.188Z,98038.19
2023-06-30T14:34:37.211Z,98035.56
2023-06-30T14:37:04.156Z,98033.58
2023-06-30T14:39:30.937Z,98031.45
2023-06-30T14:42:02.769Z,98032.42
2023-06-30T14:44:29.897Z,98029.28
2023-06-30T14:46:57.092Z,98023.62
2023-06-30T14:49:23.953Z,98024.15
2023-06-30T14:51:50.828Z,98019.86
2023-06-30T14:54:17.664Z,98017.92
2023-06-30T14:56:44.503Z,98021.38
2023-06-30T14:59:11.233Z,98014.98
2023-06-30T15:01:38.103Z,98011.48
2023-06-30T15:04:05.080Z,98004.46
2023-06-30T15:06:32.285Z,98005.64
2023-06-30T15:08:59.149Z,98009.77
2023-06-30T15:11:25.931Z,98008.24
2023-06-30T15:13:52.902Z,98005.42
2023-06-30T15:16:19.834Z,98007.66
2023-06-30T15:18:46.839Z,98002.37
2023-06-30T15:21:13.736Z,98007.99
2023-06-30T15:23:40.536Z,98004.55
2023-06-30T15:26:07.496Z,98005.33
2023-06-30T15:28:34.685Z,98000.77
2023-06-30T15:31:01.600Z,98000.27
2023-06-30T15:33:28.612Z,97997.48
2023-06-30T15:35:56.548Z,97994.13
2023-06-30T15:38:23.272Z,97988.98
2023-06-30T15:40:52.990Z,97987.36
2023-06-30T15:43:23.300Z,97989.38
2023-06-30T15:45:52.236Z,97990.80
2023-06-30T15:48:19.257Z,97985.33
2023-06-30T15:50:47.488Z,97979.42
2023-06-30T15:53:14.814Z,97977.81
2023-06-30T15:55:43.118Z,97975.96
2023-06-30T15:58:10.326Z,97978.22
2023-06-30T16:00:37.212Z,97965.38
2023-06-30T16:03:04.410Z,97966.45
2023-06-30T16:05:31.503Z,97964.30
2023-06-30T16:07:58.628Z,97966.15
2023-06-30T16:10:25.475Z,97967.18
2023-06-30T16:12:52.290Z,97965.48
2023-06-30T16:15:19.330Z,97962.70
2023-06-30T16:17:46.207Z,97960.83
2023-06-30T16:20:13.118Z,97960.59
2023-06-30T16:22:40.076Z,97959.50
2023-06-30T16:25:07.230Z,97961.35
2023-06-30T16:27:34.128Z,97965.21
2023-06-30T16:30:23.864Z,97962.08
2023-06-30T16:32:53.407Z,97962.13
2023-06-30T16:35:20.958Z,97958.88
2023-06-30T16:37:47.843Z,97958.61
2023-06-30T16:40:14.785Z,97956.02
2023-06-30T16:42:42.276Z,97951.88
2023-06-30T16:45:09.814Z,97951.95
2023-06-30T16:47:37.388Z,97949.71
2023-06-30T16:50:05.178Z,97947.48
2023-06-30T16:52:36.733Z,97946.48
2023-06-30T16:55:04.568Z,97949.42
2023-06-30T16:57:32.166Z,97948.30
2023-06-30T17:00:02.029Z,97944.92
2023-06-30T17:02:29.171Z,97945.41
2023-06-30T17:04:56.289Z,97945.27
2023-06-30T17:07:23.158Z,97947.84
2023-06-30T17:09:50.227Z,97947.02
2023-06-30T17:12:17.575Z,97942.88
2023-06-30T17:14:44.607Z,97944.13
2023-06-30T17:17:12.987Z,97940.12
2023-06-30T17:19:39.956Z,97942.02
2023-06-30T17:22:06.891Z,97941.48
2023-06-30T17:24:33.900Z,97939.46
2023-06-30T17:27:00.662Z,97939.69
2023-06-30T17:29:27.623Z,97941.06
2023-06-30T17:31:54.624Z,97938.34
2023-06-30T17:34:21.666Z,97936.44
2023-06-30T17:36:48.580Z,97931.71
2023-06-30T17:39:15.360Z,97937.39
2023-06-30T17:41:42.157Z,97933.22
2023-06-30T17:44:09.145Z,97933.55
2023-06-30T17:46:36.229Z,97932.23
2023-06-30T17:49:23.098Z,97931.20
2023-06-30T17:51:51.248Z,97928.41
2023-06-30T17:54:20.237Z,97930.80
2023-06-30T17:56:48.976Z,97929.75
2023-06-30T17:59:16.001Z,97928.92
2023-06-30T18:01:43.993Z,97928.23
2023-06-30T18:04:11.271Z,97926.71
2023-06-30T18:06:40.192Z,97925.05
2023-06-30T18:09:07.267Z,97924.52
2023-06-30T18:11:34.289Z,97924.86
2023-06-30T18:14:01.083Z,97929.48
2023-06-30T18:16:29.512Z,97925.63
2023-06-30T18:18:56.352Z,97928.95
2023-06-30T18:21:23.207Z,97928.98
2023-06-30T18:23:50.157Z,97928.27
2023-06-30T18:26:17.009Z,97935.52
2023-06-30T18:28:44.068Z,97930.16
2023-06-30T18:31:10.842Z,97930.70
2023-06-30T18:33:37.706Z,97934.20
2023-06-30T18:36:04.598Z,97930.19
2023-06-30T18:38:31.399Z,97928.58
2023-06-30T18:40:58.384Z,97934.11
2023-06-30T18:43:25.220Z,97935.05
2023-06-30T18:45:52.166Z,97939.14
2023-06-30T18:48:18.985Z,97942.71
2023-06-30T18:50:45.940Z,97936.29
2023-06-30T18:53:12.718Z,97939.31
2023-06-30T18:55:39.575Z,97940.61
2023-06-30T18:58:06.372Z,97943.21
2023-06-30T19:00:33.375Z,97941.86
2023-06-30T19:03:00.611Z,97944.33
2023-06-30T19:05:27.733Z,97946.35
2023-06-30T19:07:54.632Z,97948.27
2023-06-30T19:10:21.630Z,97948.80
2023-06-30T19:12:48.504Z,97949.18
2023-06-30T19:15:15.512Z,97953.45
2023-06-30T19:17:43.557Z,97955.27
2023-06-30T19:20:10.917Z,97958.00
2023-06-30T19:22:37.803Z,97961.21
2023-06-30T19:25:04.881Z,97957.64
2023-06-30T19:27:31.798Z,97953.78
2023-06-30T19:30:00.236Z,97954.05
2023-06-30T19:32:27.214Z,97956.30
2023-06-30T19:34:54.037Z,97956.77
2023-06-30T19:37:21.009Z,97954.13
2023-06-30T19:39:47.759Z,97956.86
2023-06-30T19:42:14.743Z,97958.23
2023-06-30T19:44:41.602Z,97960.29
2023-06-30T19:47:08.428Z,97961.48
2023-06-30T19:49:35.276Z,97958.11
2023-06-30T19:52:02.173Z,97957.55
2023-06-30T19:54:29.037Z,97956.39
2023-06-30T19:56:55.922Z,97962.81
2023-06-30T19:59:22.766Z,97968.23
2023-06-30T20:01:49.918Z,97971.94
2023-06-30T20:04:16.861Z,97974.47
2023-06-30T20:06:43.704Z,97972.63
2023-06-30T20:09:10.666Z,97976.46
2023-06-30T20:11:37.651Z,97977.03
2023-06-30T20:14:04.767Z,97981.27
2023-06-30T20:16:31.941Z,97978.95
2023-06-30T20:18:59.189Z,97978.25
2023-06-30T20:21:26.439Z,97978.97
2023-06-30T20:23:53.425Z,97981.11
2023-06-30T20:26:20.538Z,97986.45
2023-06-30T20:28:47.687Z,97989.27
2023-06-30T20:31:14.870Z,97992.05
2023-06-30T20:33:42.200Z,97993.85
2023-06-30T20:36:09.460Z,97994.92
2023-06-30T20:38:36.419Z,97998.64
2023-06-30T20:41:04.285Z,97995.33
2023-06-30T20:43:31.548Z,97995.73
2023-06-30T20:45:58.495Z,98000.80
2023-06-30T20:48:25.340Z,98005.95
2023-06-30T20:50:52.410Z,98006.04
2023-06-30T20:53:19.568Z,98006.48
2023-06-30T20:55:46.818Z,98007.37
2023-06-30T20:58:13.677Z,98006.23
2023-06-30T21:00:40.783Z,98004.86
2023-06-30T21:03:07.726Z,98006.10
2023-06-30T21:05:34.923Z,98005.38
2023-06-30T21:08:01.977Z,98007.46
2023-06-30T21:10:28.928Z,98008.69
2023-06-30T21:13:00.107Z,98009.70
2023-06-30T21:15:30.104Z,98009.88
2023-06-30T21:17:57.386Z,98012.19
2023-06-30T21:20:24.410Z,98015.05
2023-06-30T21:22:51.463Z,98008.18
2023-06-30T21:25:18.619Z,98004.62
2023-06-30T21:27:45.574Z,98001.30
2023-06-30T21:30:13.232Z,97998.08
2023-06-30T21:32:40.425Z,97997.91
2023-06-30T21:35:07.614Z,97996.63
2023-06-30T21:37:34.502Z,97992.16
2023-06-30T21:40:01.578Z,97992.77
2023-06-30T21:42:28.706Z,97991.45
2023-06-30T21:44:55.659Z,97991.61
2023-06-30T21:47:22.546Z,97989.15
2023-06-30T21:49:49.682Z,97990.13
2023-06-30T21:52:16.919Z,97995.18
2023-06-30T21:54:48.444Z,97995.22
2023-06-30T21:57:16.660Z,97995.02
2023-06-30T21:59:43.707Z,97997.10
2023-06-30T22:02:10.957Z,97996.69
2023-06-30T22:04:38.262Z,97993.93
2023-06-30T22:07:05.391Z,97992.66
2023-06-30T22:09:33.679Z,97993.73
2023-06-30T22:12:00.612Z,97995.44
2023-06-30T22:14:27.883Z,97995.19
2023-06-30T22:16:54.921Z,97995.85
2023-06-30T22:19:22.188Z,97997.23
2023-06-30T22:21:49.284Z,97990.04
2023-06-30T22:24:16.395Z,97995.03
2023-06-30T22:26:43.448Z,97992.71
2023-06-30T22:29:10.393Z,97994.34
2023-06-30T22:31:37.572Z,97991.26
2023-06-30T22:34:04.708Z,97993.52
2023-06-30T22:36:31.661Z,97987.75
2023-06-30T22:38:58.717Z,97993.88
2023-06-30T22:41:26.284Z,97992.37
2023-06-30T22:43:53.107Z,97992.20
2023-06-30T22:46:20.081Z,97989.16
2023-06-30T22:48:47.033Z,97989.05
2023-06-30T22:51:15.824Z,97990.40
2023-06-30T22:53:42.926Z,97988.64
2023-06-30T22:56:09.846Z,97988.66
2023-06-30T22:58:36.783Z,97992.41
2023-06-30T23:01:06.107Z,97991.83
2023-06-30T23:03:33.204Z,97991.51
2023-06-30T23:06:00.256Z,97991.95
2023-06-30T23:08:27.348Z,97990.17
2023-06-30T23:10:54.408Z,97989.09
2023-06-30T23:13:21.394Z,97987.04
2023-06-30T23:15:48.920Z,97980.95
2023-06-30T23:18:19.866Z,97977.39
2023-06-30T23:20:47.775Z,97977.94
2023-06-30T23:23:15.299Z,97980.64
2023-06-30T23:25:42.657Z,97980.08
2023-06-30T23:28:09.809Z,97979.12
2023-06-30T23:30:37.166Z,97977.91
2023-06-30T23:33:04.616Z,97981.91
2023-06-30T23:35:31.997Z,97979.00
2023-06-30T23:37:58.945Z,97980.05
2023-06-30T23:40:25.995Z,97973.92
2023-06-30T23:42:52.928Z,97976.50
2023-06-30T23:45:20.056Z,97982.90
2023-06-30T23:47:47.152Z,97977.91
2023-06-30T23:50:15.033Z,97976.65
2023-06-30T23:52:42.082Z,97974.64
2023-06-30T23:55:09.344Z,97972.82
2023-06-30T23:57:36.197Z,97971.06
